Aviation Digital Data Service (ADDS)

Output produced by METARs form (1622 UTC 23 September 2020)
found at http://aviationweather.gov/metar/data/
 
KGGG 231600Z 01007KT 10SM OVC003 19/18 A2992 RMK AO2 T01940178
KGGG 231553Z 01005KT 3/4SM BR OVC003 19/18 A2992 RMK AO2 SLP127 T01940178 RVRNO
KGGG 231143Z 2312/2412 03004KT P6SM OVC002 
     TEMPO 2312/2315 1/2SM -DZ FG OVC001 
     FM231500 04009KT 1/4SM FG OVC004 
     FM232100 03011KT P6SM OVC007 
     FM240000 01008KT P6SM OVC015